createdAt,value
2022-09-15T00:01:35.465Z,15.85
2022-09-15T00:04:04.355Z,15.80
2022-09-15T00:06:32.977Z,15.71
2022-09-15T00:09:01.282Z,15.64
2022-09-15T00:11:32.232Z,15.86
2022-09-15T00:14:05.718Z,15.77
2022-09-15T00:16:34.591Z,15.73
2022-09-15T00:19:03.791Z,15.73
2022-09-15T00:21:36.083Z,15.73
2022-09-15T00:24:05.071Z,15.73
2022-09-15T00:26:33.572Z,15.70
2022-09-15T00:29:05.327Z,15.73
2022-09-15T00:31:34.000Z,15.53
2022-09-15T00:34:04.051Z,15.73
2022-09-15T00:36:33.483Z,15.76
2022-09-15T00:39:01.993Z,15.71
2022-09-15T00:41:30.841Z,15.71
2022-09-15T00:44:03.165Z,15.82
2022-09-15T00:46:34.176Z,15.74
2022-09-15T00:49:07.100Z,15.74
2022-09-15T00:51:42.279Z,15.88
2022-09-15T00:54:18.631Z,15.81
2022-09-15T00:56:50.746Z,15.75
2022-09-15T00:59:29.292Z,15.83
2022-09-15T01:02:04.473Z,15.83
2022-09-15T01:04:32.858Z,15.81
2022-09-15T01:07:06.368Z,15.80
2022-09-15T01:09:39.652Z,15.91
2022-09-15T01:12:08.554Z,16.00
2022-09-15T01:14:38.324Z,15.84
2022-09-15T01:17:17.257Z,15.87
2022-09-15T01:20:37.004Z,15.93
2022-09-15T01:23:34.768Z,15.96
2022-09-15T01:26:28.538Z,15.83
2022-09-15T01:29:56.209Z,15.84
2022-09-15T01:32:47.869Z,15.77
2022-09-15T01:35:28.031Z,15.83
2022-09-15T01:38:02.509Z,15.80
2022-09-15T01:40:36.824Z,15.73
2022-09-15T01:43:07.775Z,15.78
2022-09-15T01:45:40.639Z,15.71
2022-09-15T01:48:10.974Z,15.48
2022-09-15T01:50:45.389Z,15.86
2022-09-15T01:53:18.180Z,15.30
2022-09-15T01:55:53.950Z,15.75
2022-09-15T01:58:22.589Z,15.73
2022-09-15T02:01:00.173Z,14.62
2022-09-15T02:03:35.149Z,15.83
2022-09-15T02:06:10.044Z,15.68
2022-09-15T02:08:45.147Z,15.73
2022-09-15T02:11:17.329Z,15.74
2022-09-15T02:13:55.367Z,15.78
2022-09-15T02:16:29.205Z,15.67
2022-09-15T02:19:18.690Z,15.75
2022-09-15T02:21:56.175Z,15.72
2022-09-15T02:24:32.537Z,15.70
2022-09-15T02:27:02.782Z,15.73
2022-09-15T02:29:34.646Z,15.72
2022-09-15T02:32:07.419Z,15.12
2022-09-15T02:34:41.186Z,15.77
2022-09-15T02:37:10.996Z,15.76
2022-09-15T02:39:46.421Z,15.66
2022-09-15T02:42:24.562Z,15.72
2022-09-15T02:44:53.459Z,15.74
2022-09-15T02:47:23.962Z,15.76
2022-09-15T02:49:52.170Z,15.70
2022-09-15T02:52:20.728Z,15.65
2022-09-15T02:54:50.363Z,15.72
2022-09-15T02:57:18.574Z,15.72
2022-09-15T03:00:06.460Z,15.72
2022-09-15T03:02:36.093Z,15.74
2022-09-15T03:05:04.414Z,15.68
2022-09-15T03:07:32.997Z,15.59
2022-09-15T03:10:01.221Z,15.74
2022-09-15T03:12:29.398Z,15.68
2022-09-15T03:14:57.608Z,15.67
2022-09-15T03:17:26.331Z,15.62
2022-09-15T03:19:55.861Z,15.70
2022-09-15T03:22:28.933Z,15.66
2022-09-15T03:24:57.124Z,15.67
2022-09-15T03:27:25.643Z,15.64
2022-09-15T03:29:54.317Z,15.77
2022-09-15T03:32:22.512Z,15.77
2022-09-15T03:34:52.416Z,15.74
2022-09-15T03:37:23.693Z,15.76
2022-09-15T03:39:51.920Z,15.75
2022-09-15T03:42:20.327Z,15.86
2022-09-15T03:44:48.518Z,15.74
2022-09-15T03:47:16.820Z,15.63
2022-09-15T03:49:45.003Z,15.75
2022-09-15T03:52:13.220Z,15.68
2022-09-15T03:54:42.760Z,15.86
2022-09-15T03:57:11.302Z,15.85
2022-09-15T03:59:39.543Z,15.67
2022-09-15T04:02:07.749Z,15.70
2022-09-15T04:04:55.663Z,15.76
2022-09-15T04:07:28.914Z,15.65
2022-09-15T04:09:58.462Z,15.71
2022-09-15T04:12:26.605Z,15.68
2022-09-15T04:14:55.304Z,15.79
2022-09-15T04:17:23.443Z,15.62
2022-09-15T04:19:51.746Z,15.76
2022-09-15T04:22:20.321Z,15.69
2022-09-15T04:24:48.992Z,15.67
2022-09-15T04:27:18.963Z,15.63
2022-09-15T04:29:47.125Z,15.67
2022-09-15T04:32:15.247Z,15.70
2022-09-15T04:34:43.439Z,15.62
2022-09-15T04:37:11.719Z,15.69
2022-09-15T04:39:40.037Z,15.63
2022-09-15T04:42:08.353Z,15.71
2022-09-15T04:44:37.965Z,15.74
2022-09-15T04:47:07.195Z,15.85
2022-09-15T04:49:35.726Z,15.64
2022-09-15T04:52:08.974Z,15.21
2022-09-15T04:54:38.050Z,15.59
2022-09-15T04:57:06.861Z,14.72
2022-09-15T04:59:35.231Z,15.57
2022-09-15T05:02:04.979Z,15.70
2022-09-15T05:04:33.529Z,15.72
2022-09-15T05:07:01.705Z,15.65
2022-09-15T05:09:31.036Z,15.69
2022-09-15T05:11:59.406Z,15.66
2022-09-15T05:14:27.575Z,15.72
2022-09-15T05:16:55.765Z,15.57
2022-09-15T05:19:25.376Z,15.65
2022-09-15T05:21:53.570Z,15.68
2022-09-15T05:24:21.895Z,15.61
2022-09-15T05:26:50.122Z,15.68
2022-09-15T05:29:18.314Z,15.56
2022-09-15T05:31:46.572Z,15.69
2022-09-15T05:34:15.461Z,15.66
2022-09-15T05:36:45.012Z,15.67
2022-09-15T05:39:13.210Z,15.74
2022-09-15T05:41:41.382Z,15.64
2022-09-15T05:44:12.171Z,15.62
2022-09-15T05:46:40.638Z,15.64
2022-09-15T05:49:09.048Z,15.67
2022-09-15T05:51:37.854Z,15.64
2022-09-15T05:54:07.634Z,15.61
2022-09-15T05:56:35.851Z,15.59
2022-09-15T05:59:04.109Z,15.72
2022-09-15T06:01:32.651Z,15.68
2022-09-15T06:04:01.055Z,15.69
2022-09-15T06:06:29.249Z,15.68
2022-09-15T06:09:00.437Z,15.66
2022-09-15T06:11:33.684Z,15.58
2022-09-15T06:14:03.091Z,15.71
2022-09-15T06:16:35.047Z,15.74
2022-09-15T06:19:03.915Z,15.69
2022-09-15T06:21:34.196Z,15.62
2022-09-15T06:24:06.949Z,14.93
2022-09-15T06:26:36.609Z,15.68
2022-09-15T06:29:06.363Z,15.61
2022-09-15T06:31:35.647Z,15.83
2022-09-15T06:34:05.394Z,15.77
2022-09-15T06:36:34.093Z,15.71
2022-09-15T06:39:02.841Z,15.72
2022-09-15T06:41:52.599Z,15.89
2022-09-15T06:44:21.723Z,15.71
2022-09-15T06:46:50.369Z,15.82
2022-09-15T06:49:19.154Z,15.69
2022-09-15T06:51:47.351Z,15.84
2022-09-15T06:54:16.780Z,15.73
2022-09-15T06:56:45.730Z,15.73
2022-09-15T06:59:14.469Z,15.71
2022-09-15T07:01:44.198Z,15.73
2022-09-15T07:04:12.922Z,15.90
2022-09-15T07:06:41.324Z,14.04
2022-09-15T07:09:09.523Z,15.69
2022-09-15T07:11:37.773Z,15.71
2022-09-15T07:14:06.433Z,15.71
2022-09-15T07:16:35.051Z,15.51
2022-09-15T07:19:05.987Z,15.37
2022-09-15T07:21:34.970Z,15.47
2022-09-15T07:24:07.183Z,15.24
2022-09-15T07:26:36.162Z,15.30
2022-09-15T07:29:07.436Z,15.14
2022-09-15T07:31:39.297Z,15.21
2022-09-15T07:34:09.034Z,15.05
2022-09-15T07:36:37.993Z,15.15
2022-09-15T07:39:06.916Z,15.25
2022-09-15T07:41:35.214Z,15.09
2022-09-15T07:44:03.953Z,15.15
2022-09-15T07:46:33.885Z,15.06
2022-09-15T07:49:03.196Z,15.01
2022-09-15T07:51:33.125Z,15.07
2022-09-15T07:54:01.723Z,15.05
2022-09-15T07:56:30.179Z,15.01
2022-09-15T07:58:59.116Z,15.14
2022-09-15T08:01:27.495Z,14.96
2022-09-15T08:03:56.055Z,15.03
2022-09-15T08:06:26.571Z,14.96
2022-09-15T08:09:00.471Z,14.88
2022-09-15T08:11:29.599Z,14.54
2022-09-15T08:14:01.149Z,14.88
2022-09-15T08:16:29.627Z,15.01
2022-09-15T08:18:57.910Z,15.14
2022-09-15T08:21:27.559Z,15.07
2022-09-15T08:23:59.808Z,15.20
2022-09-15T08:26:29.784Z,15.28
2022-09-15T08:28:58.868Z,15.38
2022-09-15T08:31:27.546Z,15.31
2022-09-15T08:33:57.060Z,15.29
2022-09-15T08:36:27.619Z,15.28
2022-09-15T08:38:57.622Z,15.17
2022-09-15T08:41:31.035Z,15.21
2022-09-15T08:44:04.586Z,15.21
2022-09-15T08:46:40.076Z,15.28
2022-09-15T08:49:20.712Z,15.34
2022-09-15T08:52:05.301Z,15.33
2022-09-15T08:54:35.331Z,15.37
2022-09-15T08:57:07.082Z,16.06
2022-09-15T08:59:37.118Z,15.49
2022-09-15T09:02:47.051Z,16.22
2022-09-15T09:05:36.885Z,15.03
2022-09-15T09:08:43.187Z,15.49
2022-09-15T09:11:20.516Z,15.67
2022-09-15T09:14:00.557Z,15.61
2022-09-15T09:16:54.558Z,15.71
2022-09-15T09:19:47.649Z,15.75
2022-09-15T09:22:19.597Z,15.45
2022-09-15T09:24:50.518Z,15.50
2022-09-15T09:27:25.233Z,15.33
2022-09-15T09:30:00.659Z,15.47
2022-09-15T09:32:41.429Z,15.53
2022-09-15T09:35:21.746Z,15.44
2022-09-15T09:37:52.932Z,15.27
2022-09-15T09:40:21.893Z,15.30
2022-09-15T09:42:51.495Z,15.43
2022-09-15T09:45:20.934Z,15.38
2022-09-15T09:47:49.176Z,15.23
2022-09-15T09:50:36.447Z,15.19
2022-09-15T09:53:25.025Z,14.97
2022-09-15T09:55:55.078Z,15.01
2022-09-15T09:58:26.320Z,14.77
2022-09-15T10:00:54.569Z,14.87
2022-09-15T10:03:27.115Z,14.80
2022-09-15T10:06:06.041Z,14.70
2022-09-15T10:08:34.915Z,14.59
2022-09-15T10:11:07.106Z,14.53
2022-09-15T10:13:50.535Z,14.72
2022-09-15T10:16:21.012Z,14.48
2022-09-15T10:18:54.298Z,14.60
2022-09-15T10:21:26.099Z,14.47
2022-09-15T10:23:54.452Z,14.44
2022-09-15T10:26:33.181Z,14.47
2022-09-15T10:29:16.247Z,14.48
2022-09-15T10:31:45.646Z,14.34
2022-09-15T10:34:30.478Z,14.43
2022-09-15T10:37:10.093Z,14.58
2022-09-15T10:39:53.408Z,14.59
2022-09-15T10:42:35.776Z,14.51
2022-09-15T10:45:19.512Z,14.49
2022-09-15T10:48:07.096Z,14.46
2022-09-15T10:50:50.337Z,14.49
2022-09-15T10:53:26.474Z,14.47
2022-09-15T10:56:05.774Z,14.34
2022-09-15T10:58:49.461Z,14.40
2022-09-15T11:01:38.648Z,14.36
2022-09-15T11:04:32.074Z,14.45
2022-09-15T11:07:09.206Z,14.27
2022-09-15T11:09:45.316Z,14.02
2022-09-15T11:12:32.675Z,14.09
2022-09-15T11:15:29.189Z,14.13
2022-09-15T11:18:27.483Z,13.95
2022-09-15T11:21:15.421Z,13.84
2022-09-15T11:23:51.700Z,13.74
2022-09-15T11:26:25.835Z,14.02
2022-09-15T11:28:58.926Z,13.68
2022-09-15T11:31:31.140Z,13.53
2022-09-15T11:34:07.732Z,13.63
2022-09-15T11:36:44.447Z,13.54
2022-09-15T11:39:21.356Z,13.76
2022-09-15T11:41:56.503Z,13.79
2022-09-15T11:44:30.526Z,13.69
2022-09-15T11:47:09.846Z,13.75
2022-09-15T11:49:45.865Z,13.63
2022-09-15T11:52:36.905Z,13.34
2022-09-15T11:55:17.625Z,13.18
2022-09-15T11:57:54.648Z,13.33
2022-09-15T12:00:23.497Z,13.15
2022-09-15T12:03:04.416Z,13.27
2022-09-15T12:05:41.953Z,12.72
2022-09-15T12:08:20.186Z,13.34
2022-09-15T12:10:52.698Z,13.40
2022-09-15T12:13:24.017Z,13.50
2022-09-15T12:15:53.565Z,13.62
2022-09-15T12:18:38.961Z,13.75
2022-09-15T12:21:16.863Z,13.68
2022-09-15T12:23:55.260Z,13.52
2022-09-15T12:26:26.709Z,13.61
2022-09-15T12:29:02.255Z,13.86
2022-09-15T12:31:41.136Z,13.81
2022-09-15T12:34:36.209Z,13.80
2022-09-15T12:37:15.212Z,13.95
2022-09-15T12:39:44.948Z,14.06
2022-09-15T12:42:21.509Z,14.27
2022-09-15T12:44:54.570Z,14.04
2022-09-15T12:47:35.805Z,14.07
2022-09-15T12:50:21.512Z,14.16
2022-09-15T12:52:54.519Z,14.14
2022-09-15T12:55:26.760Z,14.09
2022-09-15T12:57:58.176Z,13.87
2022-09-15T13:01:14.304Z,14.04
2022-09-15T13:04:29.523Z,14.26
2022-09-15T13:07:38.558Z,14.55
2022-09-15T13:10:39.422Z,14.63
2022-09-15T13:13:32.655Z,14.55
2022-09-15T13:16:03.605Z,14.58
2022-09-15T13:18:33.404Z,14.50
2022-09-15T13:21:08.643Z,14.61
2022-09-15T13:23:42.415Z,14.42
2022-09-15T13:26:17.766Z,14.39
2022-09-15T13:28:50.465Z,14.48
2022-09-15T13:31:47.046Z,14.31
2022-09-15T13:35:07.956Z,14.20
2022-09-15T13:38:20.208Z,14.24
2022-09-15T13:41:34.085Z,14.33
2022-09-15T13:45:00.879Z,14.55
2022-09-15T13:47:47.306Z,14.48
2022-09-15T13:50:22.639Z,14.62
2022-09-15T13:53:20.491Z,14.55
2022-09-15T13:55:48.911Z,14.45
2022-09-15T14:01:12.463Z,14.47
2022-09-15T14:04:13.270Z,14.53
2022-09-15T14:06:45.197Z,14.38
2022-09-15T14:09:17.965Z,14.33
2022-09-15T14:11:49.914Z,14.41
2022-09-15T14:14:37.990Z,14.17
2022-09-15T14:17:06.619Z,14.29
2022-09-15T14:19:37.331Z,14.36
2022-09-15T14:22:27.127Z,14.29
2022-09-15T14:24:57.219Z,14.26
2022-09-15T14:27:28.754Z,14.31
2022-09-15T14:30:02.765Z,14.43
2022-09-15T14:32:35.437Z,14.29
2022-09-15T14:35:09.143Z,14.48
2022-09-15T14:37:37.316Z,14.37
2022-09-15T14:40:23.502Z,14.62
2022-09-15T14:42:51.916Z,14.62
2022-09-15T14:48:17.697Z,14.94
2022-09-15T14:50:48.241Z,15.11
2022-09-15T14:53:20.523Z,15.02
2022-09-15T14:55:53.948Z,14.99
2022-09-15T14:58:26.967Z,15.18
2022-09-15T15:01:04.197Z,15.33
2022-09-15T15:03:39.159Z,15.41
2022-09-15T15:06:30.074Z,15.40
2022-09-15T15:09:03.996Z,15.52
2022-09-15T15:11:34.213Z,15.39
2022-09-15T15:14:07.517Z,15.37
2022-09-15T15:16:37.417Z,15.29
2022-09-15T15:19:05.658Z,15.38
2022-09-15T15:21:39.697Z,15.24
2022-09-15T15:24:21.612Z,15.13
2022-09-15T15:26:51.394Z,15.28
2022-09-15T15:29:42.562Z,15.14
2022-09-15T15:32:17.429Z,15.17
2022-09-15T15:34:54.130Z,15.10
2022-09-15T15:37:31.336Z,15.12
2022-09-15T15:40:05.132Z,15.37
2022-09-15T15:42:33.552Z,15.25
2022-09-15T15:45:18.676Z,15.16
2022-09-15T15:47:48.381Z,15.10
2022-09-15T15:50:20.888Z,15.10
2022-09-15T15:52:50.370Z,15.04
2022-09-15T15:55:21.282Z,14.97
2022-09-15T15:57:52.146Z,14.83
2022-09-15T16:00:24.446Z,15.00
2022-09-15T16:02:54.505Z,15.37
2022-09-15T16:05:26.824Z,15.27
2022-09-15T16:07:57.234Z,15.08
2022-09-15T16:10:30.025Z,15.06
2022-09-15T16:12:58.470Z,15.11
2022-09-15T16:15:27.580Z,15.09
2022-09-15T16:17:57.133Z,15.08
2022-09-15T16:20:25.583Z,15.09
2022-09-15T16:22:53.973Z,15.00
2022-09-15T16:25:32.745Z,14.84
2022-09-15T16:28:01.614Z,14.95
2022-09-15T16:30:29.812Z,14.91
2022-09-15T16:32:59.743Z,14.78
2022-09-15T16:35:36.744Z,14.25
2022-09-15T16:38:04.930Z,14.92
2022-09-15T16:40:33.579Z,14.67
2022-09-15T16:43:02.085Z,14.85
2022-09-15T16:45:39.773Z,13.72
2022-09-15T16:48:10.766Z,14.65
2022-09-15T16:50:45.885Z,14.67
2022-09-15T16:53:22.577Z,14.70
2022-09-15T16:55:53.309Z,14.73
2022-09-15T16:58:22.634Z,14.70
2022-09-15T17:00:52.834Z,14.70
2022-09-15T17:03:25.037Z,14.73
2022-09-15T17:05:55.053Z,14.66
2022-09-15T17:08:27.204Z,14.73
2022-09-15T17:10:57.681Z,14.71
2022-09-15T17:13:30.314Z,14.66
2022-09-15T17:16:00.007Z,14.71
2022-09-15T17:18:30.564Z,13.42
2022-09-15T17:20:59.389Z,14.41
2022-09-15T17:23:31.410Z,14.46
2022-09-15T17:26:01.741Z,14.45
2022-09-15T17:28:32.569Z,14.34
2022-09-15T17:31:03.062Z,14.28
2022-09-15T17:33:34.012Z,14.36
2022-09-15T17:36:02.736Z,14.26
2022-09-15T17:38:31.045Z,14.44
2022-09-15T17:40:59.642Z,14.34
2022-09-15T17:43:30.495Z,14.18
2022-09-15T17:45:59.185Z,14.25
2022-09-15T17:48:27.434Z,14.33
2022-09-15T17:50:57.158Z,14.09
2022-09-15T17:53:27.158Z,14.17
2022-09-15T17:55:56.688Z,13.94
2022-09-15T17:58:26.745Z,14.20
2022-09-15T18:00:55.671Z,14.10
2022-09-15T18:03:36.355Z,13.14
2022-09-15T18:06:09.293Z,13.49
2022-09-15T18:08:38.127Z,13.77
2022-09-15T18:11:07.529Z,14.02
2022-09-15T18:13:37.850Z,14.10
2022-09-15T18:16:08.294Z,14.13
2022-09-15T18:18:36.602Z,14.12
2022-09-15T18:21:19.192Z,14.12
2022-09-15T18:23:47.443Z,14.14
2022-09-15T18:26:15.594Z,14.09
2022-09-15T18:28:43.757Z,14.25
2022-09-15T18:31:14.897Z,14.21
2022-09-15T18:33:43.116Z,14.09
2022-09-15T18:36:13.551Z,14.17
2022-09-15T18:38:41.777Z,14.20
2022-09-15T18:41:12.961Z,14.07
2022-09-15T18:43:41.632Z,14.00
2022-09-15T18:46:09.873Z,14.08
2022-09-15T18:48:38.098Z,14.13
2022-09-15T18:51:09.248Z,14.15
2022-09-15T18:53:39.224Z,14.00
2022-09-15T18:56:11.611Z,13.94
2022-09-15T18:58:39.854Z,13.98
2022-09-15T19:01:08.277Z,13.97
2022-09-15T19:03:37.730Z,13.97
2022-09-15T19:06:06.923Z,13.97
2022-09-15T19:08:36.492Z,13.05
2022-09-15T19:11:06.356Z,13.93
2022-09-15T19:13:35.635Z,13.78
2022-09-15T19:16:05.967Z,13.72
2022-09-15T19:18:34.763Z,13.15
2022-09-15T19:21:08.052Z,13.62
2022-09-15T19:23:36.744Z,13.47
2022-09-15T19:26:09.952Z,13.34
2022-09-15T19:28:38.855Z,13.16
2022-09-15T19:31:09.772Z,13.31
2022-09-15T19:33:38.580Z,13.18
2022-09-15T19:36:27.435Z,13.09
2022-09-15T19:38:56.970Z,13.07
2022-09-15T19:41:26.789Z,12.98
2022-09-15T19:43:55.070Z,12.93
2022-09-15T19:46:26.504Z,12.96
2022-09-15T19:48:55.460Z,12.89
2022-09-15T19:51:23.981Z,12.87
2022-09-15T19:53:55.907Z,12.84
2022-09-15T19:56:27.110Z,12.77
2022-09-15T19:58:57.890Z,12.10
2022-09-15T20:01:53.422Z,12.64
2022-09-15T20:04:21.774Z,11.47
2022-09-15T20:06:49.936Z,12.71
2022-09-15T20:09:18.107Z,12.62
2022-09-15T20:11:47.789Z,12.27
2022-09-15T20:14:16.317Z,12.50
2022-09-15T20:16:44.558Z,12.41
2022-09-15T20:19:13.014Z,13.00
2022-09-15T20:21:51.056Z,12.35
2022-09-15T20:24:21.381Z,12.38
2022-09-15T20:26:51.427Z,12.26
2022-09-15T20:29:20.877Z,12.19
2022-09-15T20:31:49.599Z,12.25
2022-09-15T20:34:18.670Z,11.41
2022-09-15T20:36:46.914Z,12.21
2022-09-15T20:39:18.721Z,12.05
2022-09-15T20:41:46.872Z,12.09
2022-09-15T20:44:16.782Z,11.90
2022-09-15T20:46:45.126Z,12.07
2022-09-15T20:49:13.517Z,12.62
2022-09-15T20:51:42.247Z,11.96
2022-09-15T20:54:11.837Z,11.97
2022-09-15T20:56:40.084Z,11.63
2022-09-15T20:59:10.528Z,11.93
2022-09-15T21:01:41.124Z,11.86
2022-09-15T21:04:11.293Z,11.80
2022-09-15T21:06:40.177Z,11.79
2022-09-15T21:09:09.240Z,11.70
2022-09-15T21:11:39.052Z,11.26
2022-09-15T21:14:07.537Z,11.63
2022-09-15T21:16:35.790Z,11.56
2022-09-15T21:19:05.557Z,11.56
2022-09-15T21:21:34.740Z,11.42
2022-09-15T21:24:06.187Z,11.49
2022-09-15T21:26:57.148Z,11.45
2022-09-15T21:29:26.413Z,11.36
2022-09-15T21:31:56.194Z,11.36
2022-09-15T21:34:26.310Z,11.34
2022-09-15T21:36:54.464Z,11.23
2022-09-15T21:39:22.645Z,11.26
2022-09-15T21:41:51.144Z,11.31
2022-09-15T21:44:19.310Z,11.34
2022-09-15T21:46:47.800Z,11.29
2022-09-15T21:49:18.046Z,11.14
2022-09-15T21:51:47.602Z,11.24
2022-09-15T21:54:15.807Z,11.24
2022-09-15T21:56:44.054Z,11.24
2022-09-15T21:59:12.488Z,11.23
2022-09-15T22:01:41.557Z,11.22
2022-09-15T22:04:11.918Z,11.22
2022-09-15T22:06:43.201Z,11.19
2022-09-15T22:09:16.354Z,11.33
2022-09-15T22:11:45.147Z,11.35
2022-09-15T22:14:14.268Z,11.29
2022-09-15T22:16:43.631Z,11.28
2022-09-15T22:19:13.419Z,11.23
2022-09-15T22:21:42.826Z,11.26
2022-09-15T22:24:14.310Z,10.92
2022-09-15T22:26:43.859Z,11.32
2022-09-15T22:29:12.517Z,10.74
2022-09-15T22:31:41.946Z,11.29
2022-09-15T22:34:10.275Z,11.22
2022-09-15T22:36:38.745Z,11.27
2022-09-15T22:39:07.162Z,11.42
2022-09-15T22:41:39.319Z,11.03
2022-09-15T22:44:08.618Z,11.33
2022-09-15T22:46:36.887Z,11.18
2022-09-15T22:49:05.070Z,11.21
2022-09-15T22:51:33.203Z,11.25
2022-09-15T22:54:03.034Z,11.27
2022-09-15T22:56:31.300Z,11.24
2022-09-15T22:59:01.031Z,11.02
2022-09-15T23:01:31.092Z,11.09
2022-09-15T23:04:01.662Z,11.11
2022-09-15T23:06:33.369Z,11.08
2022-09-15T23:09:05.195Z,11.09
2022-09-15T23:11:33.691Z,11.10
2022-09-15T23:14:04.009Z,11.13
2022-09-15T23:16:32.683Z,11.07
2022-09-15T23:19:02.496Z,11.12
2022-09-15T23:21:30.717Z,11.13
2022-09-15T23:23:59.231Z,11.11
2022-09-15T23:26:28.210Z,11.11
2022-09-15T23:28:56.472Z,11.07
2022-09-15T23:31:26.115Z,11.20
2022-09-15T23:33:54.302Z,11.01
2022-09-15T23:36:22.510Z,11.03
2022-09-15T23:38:51.450Z,10.94
2022-09-15T23:41:21.553Z,11.02
2022-09-15T23:43:49.718Z,10.93
2022-09-15T23:46:17.982Z,10.98
2022-09-15T23:48:47.625Z,11.06
2022-09-15T23:51:15.789Z,11.05
2022-09-15T23:53:44.046Z,11.04
2022-09-15T23:56:12.366Z,11.22
2022-09-15T23:58:40.582Z,11.16
